Taylorsville, Mississippi
Current Conditions -  °F | °C
As of 5:55 PM on Sunday 23 Nov 2014 (Local Time) from KPIB Reporting Station
Clear Clear  
Wind Chill: 66°   Ceiling: Unl
Heat Index: 66°   Visibility: 10mi
Dew Point: 57°   Wind: 10mph
Humidity: 73%   Direction: 190°S
Pressure: 29.64"   Gusts: 16mph
Location:  31.83°N, 89.43°W
Report Text: KPIB 232355Z AUTO 19009G14KT 10SM CLR 19/14 A2964 RMK AO1 10210 20180 402100150 52017
Loading
Personal Weather Stations






























Interactive Weather Map New forecast layout! Learn more

10-Day Weather Forecast

Advertisements
Track Severe Weather on mobile